Time;durP1;ratioP1;P1;durP2;ratioP2;P2;SDS_P1;SDS_P2;PMS_P1;PMS_P2;Temp;Humidity;BMP_temperature;BMP_pressure;BME280_temperature;BME280_humidity;BME280_pressure;Samples;Min_cycle;Max_cycle;Signal;HPM_P1;HPM_P2
2022/09/20 00:01:06;;;;;;;4.03;1.02;;;;;;;9.41;56.53;93138.81;2051060;70;20150;-74
2022/09/20 00:03:33;;;;;;;2.05;1.00;;;;;;;9.48;55.71;93142.78;2052914;70;20146;-74
2022/09/20 00:06:01;;;;;;;3.78;1.00;;;;;;;9.43;55.41;93141.03;2050705;70;20189;-74
2022/09/20 00:08:26;;;;;;;3.67;1.00;;;;;;;9.50;55.28;93142.94;2050707;70;20678;-73
2022/09/20 00:11:00;;;;;;;2.35;1.00;;;;;;;9.44;54.61;93136.91;2050902;70;20149;-73
2022/09/20 00:13:26;;;;;;;1.25;0.93;;;;;;;9.20;56.17;93132.31;2050909;70;20528;-72
2022/09/20 00:15:51;;;;;;;2.33;1.00;;;;;;;9.32;55.86;93136.75;2051040;70;20150;-73
2022/09/20 00:18:17;;;;;;;1.30;0.90;;;;;;;9.41;54.83;93132.47;2050949;70;20176;-73
2022/09/20 00:20:48;;;;;;;4.35;0.90;;;;;;;9.40;55.48;93128.91;2047114;70;20202;-73
2022/09/20 00:23:13;;;;;;;2.38;0.80;;;;;;;9.52;53.96;93125.47;2050776;70;20162;-74
2022/09/20 00:25:39;;;;;;;2.08;0.90;;;;;;;9.39;54.56;93126.69;2050314;70;20197;-73
2022/09/20 00:28:05;;;;;;;1.45;0.73;;;;;;;9.38;54.19;93128.03;2048012;70;20664;-73
2022/09/20 00:30:32;;;;;;;1.13;0.90;;;;;;;9.39;54.57;93113.41;2050817;70;20662;-73
2022/09/20 00:32:58;;;;;;;2.90;1.00;;;;;;;9.08;56.43;93115.34;2050622;70;20150;-74
2022/09/20 00:35:24;;;;;;;2.40;1.00;;;;;;;9.25;55.64;93117.22;2050744;70;20668;-74
2022/09/20 00:37:49;;;;;;;4.95;1.00;;;;;;;9.09;55.91;93117.53;2047464;70;20170;-73
2022/09/20 00:40:19;;;;;;;1.70;1.00;;;;;;;9.08;56.15;93110.47;2050650;70;20241;-74
2022/09/20 00:42:46;;;;;;;2.17;0.80;;;;;;;8.70;55.63;93113.22;2050672;70;20166;-74
2022/09/20 00:45:25;;;;;;;1.55;1.10;;;;;;;9.06;55.03;93104.69;2050621;70;20154;-73
2022/09/20 00:48:02;;;;;;;2.15;1.00;;;;;;;9.08;55.07;93102.03;2050808;70;20173;-72
2022/09/20 00:50:34;;;;;;;3.15;1.20;;;;;;;9.09;54.78;93108.38;2050618;70;20586;-73
2022/09/20 00:57:34;;;;;;;1.50;1.00;;;;;;;8.89;55.18;93102.78;2050854;70;20125;-74
2022/09/20 01:00:05;;;;;;;2.00;1.17;;;;;;;8.91;55.03;93102.19;2050178;70;20237;-73
2022/09/20 01:06:18;;;;;;;1.95;1.20;;;;;;;8.92;55.47;93098.03;2047420;70;20183;-73
2022/09/20 01:08:50;;;;;;;1.77;1.20;;;;;;;9.13;54.68;93101.00;2050684;70;20166;-72
2022/09/20 01:11:17;;;;;;;;;;;;;;;9.06;55.40;93101.13;2051071;70;20597;-73
2022/09/20 01:13:43;;;;;;;1.80;1.00;;;;;;;9.00;55.65;93100.69;2051257;70;20079;-74
2022/09/20 01:16:11;;;;;;;2.17;0.93;;;;;;;8.88;55.79;93106.16;2051384;70;20352;-73
2022/09/20 01:18:43;;;;;;;1.65;1.10;;;;;;;8.92;55.22;93106.47;2050824;70;21651;-73
2022/09/20 01:21:10;;;;;;;2.55;1.10;;;;;;;8.93;55.17;93107.19;2047934;70;20181;-73
2022/09/20 01:23:55;;;;;;;5.97;1.00;;;;;;;8.95;55.07;93099.66;2050845;70;20146;-73
2022/09/20 01:26:59;;;;;;;2.92;1.00;;;;;;;9.05;54.10;93094.78;2050725;70;20249;-73
2022/09/20 01:30:13;;;;;;;1.98;0.90;;;;;;;8.84;54.76;93094.63;2050894;70;20169;-74
2022/09/20 01:33:02;;;;;;;2.95;0.90;;;;;;;8.86;55.56;93089.91;2040799;70;20190;-74
2022/09/20 01:35:33;;;;;;;2.10;0.80;;;;;;;8.84;55.17;93086.97;2043746;70;20182;-75
2022/09/20 01:38:34;;;;;;;2.17;1.00;;;;;;;8.83;54.95;93088.28;2043692;70;20237;-74
2022/09/20 01:41:11;;;;;;;1.40;0.85;;;;;;;8.88;54.99;93081.63;2043839;70;20150;-75
2022/09/20 01:43:50;;;;;;;1.58;0.90;;;;;;;7.97;60.43;93088.81;2043467;70;20178;-75
2022/09/20 01:46:36;;;;;;;4.35;1.08;;;;;;;8.38;58.08;93092.66;2043115;70;20278;-73
2022/09/20 01:49:45;;;;;;;2.72;0.95;;;;;;;8.44;57.47;93083.97;2043357;70;20146;-74
2022/09/20 01:52:52;;;;;;;4.53;1.20;;;;;;;8.58;56.53;93087.81;2042871;70;20159;-75
2022/09/20 01:55:36;;;;;;;1.38;0.88;;;;;;;8.51;56.60;93089.44;2042876;70;20182;-74
2022/09/20 01:58:13;;;;;;;1.63;1.02;;;;;;;8.53;56.48;93092.41;2043063;70;20155;-75
2022/09/20 02:00:48;;;;;;;1.63;0.98;;;;;;;8.62;55.73;93096.56;2043083;70;20190;-74
2022/09/20 02:03:38;;;;;;;2.08;0.90;;;;;;;8.43;56.52;93086.03;2043464;70;20162;-74
2022/09/20 02:06:09;;;;;;;2.55;1.08;;;;;;;8.36;57.34;93092.47;2043407;70;20197;-73
2022/09/20 02:08:38;;;;;;;3.90;1.15;;;;;;;8.63;55.02;93092.41;2045523;70;20241;-73
2022/09/20 02:11:21;;;;;;;1.42;0.77;;;;;;;8.61;55.43;93083.81;2050535;70;20155;-73
2022/09/20 02:14:08;;;;;;;2.90;1.25;;;;;;;8.25;57.34;93091.00;2050651;70;20170;-73
2022/09/20 02:16:44;;;;;;;2.47;1.60;;;;;;;8.39;56.44;93089.28;2047982;70;20162;-73
2022/09/20 02:19:27;;;;;;;5.03;0.90;;;;;;;8.16;58.45;93086.09;2050729;70;20476;-74
2022/09/20 02:22:01;;;;;;;1.45;0.90;;;;;;;8.32;57.24;93080.97;2050554;70;20255;-74
2022/09/20 02:24:43;;;;;;;1.55;1.00;;;;;;;8.13;58.20;93084.47;2046951;70;20174;-73
2022/09/20 02:27:27;;;;;;;1.75;1.00;;;;;;;8.32;56.87;93078.88;2050141;70;20194;-73
2022/09/20 02:30:11;;;;;;;5.60;0.98;;;;;;;8.26;57.05;93078.44;2050465;70;20253;-73
2022/09/20 02:32:58;;;;;;;0.90;0.80;;;;;;;8.12;58.60;93078.13;2050532;70;20178;-74
2022/09/20 02:35:27;;;;;;;1.52;0.98;;;;;;;8.14;57.81;93071.91;2045738;70;20229;-73
2022/09/20 02:38:08;;;;;;;1.58;0.80;;;;;;;8.14;56.58;93078.25;2050619;70;20181;-74
2022/09/20 02:40:58;;;;;;;3.38;1.20;;;;;;;7.47;61.17;93073.16;2050178;70;20229;-73
2022/09/20 02:43:49;;;;;;;2.28;1.50;;;;;;;7.93;59.07;93077.31;2050039;70;20205;-73
2022/09/20 02:46:29;;;;;;;1.65;0.95;;;;;;;7.99;58.17;93074.97;2049889;70;20169;-73
2022/09/20 02:49:10;;;;;;;1.45;0.93;;;;;;;7.87;58.85;93072.69;2050329;70;20202;-73
2022/09/20 02:51:40;;;;;;;2.30;0.70;;;;;;;8.02;57.18;93077.34;2049886;70;20165;-73
2022/09/20 02:54:34;;;;;;;7.13;2.70;;;;;;;7.59;60.65;93082.47;2049814;70;20151;-74
2022/09/20 02:57:21;;;;;;;6.80;2.33;;;;;;;7.92;58.29;93087.03;2049920;70;20150;-74
2022/09/20 03:00:05;;;;;;;3.53;1.38;;;;;;;7.37;61.08;93077.94;2050176;70;20188;-74
2022/09/20 03:03:09;;;;;;;2.42;1.52;;;;;;;7.54;60.93;93080.69;2050510;70;20174;-74
2022/09/20 03:05:53;;;;;;;2.53;1.60;;;;;;;7.59;59.75;93073.34;2046944;70;20154;-75
2022/09/20 03:08:39;;;;;;;1.95;1.13;;;;;;;7.69;58.57;93074.09;2050251;70;20157;-75
2022/09/20 03:11:21;;;;;;;2.25;1.20;;;;;;;7.73;58.74;93068.09;2050206;70;20158;-75
2022/09/20 03:14:05;;;;;;;1.70;1.10;;;;;;;7.74;57.95;93069.56;2046999;70;20221;-75
2022/09/20 03:17:12;;;;;;;3.00;0.90;;;;;;;7.88;57.48;93073.47;2050536;70;20506;-75
2022/09/20 03:20:00;;;;;;;2.40;0.90;;;;;;;7.73;57.57;93082.84;2050257;70;20177;-74
2022/09/20 03:22:44;;;;;;;4.85;2.17;;;;;;;7.77;58.37;93071.19;2050522;70;20181;-75
2022/09/20 03:25:19;;;;;;;5.50;2.95;;;;;;;7.52;59.38;93065.78;2046905;70;20640;-75
2022/09/20 03:28:06;;;;;;;5.13;2.30;;;;;;;7.60;58.84;93072.75;2050526;70;20551;-75
2022/09/20 03:30:50;;;;;;;3.25;1.42;;;;;;;7.56;59.07;93078.06;2050625;70;20609;-75
2022/09/20 03:33:39;;;;;;;1.90;1.48;;;;;;;7.61;58.36;93073.50;2050526;70;20225;-75
2022/09/20 03:36:08;;;;;;;1.85;1.20;;;;;;;7.74;57.99;93077.97;2050382;70;20502;-75
2022/09/20 03:39:08;;;;;;;2.15;0.98;;;;;;;7.23;61.11;93090.81;2050327;70;20225;-75
2022/09/20 03:41:46;;;;;;;1.63;0.90;;;;;;;7.35;60.52;93084.13;2050187;70;20257;-76
2022/09/20 03:44:24;;;;;;;2.92;1.10;;;;;;;7.49;59.10;93086.56;2050197;70;20586;-75
2022/09/20 03:47:15;;;;;;;2.17;1.10;;;;;;;7.45;59.45;93089.03;2050290;70;20605;-75
2022/09/20 03:50:02;;;;;;;3.72;1.10;;;;;;;7.17;61.29;93099.50;2046385;70;20210;-75
2022/09/20 03:52:49;;;;;;;2.85;1.00;;;;;;;7.31;60.10;93094.28;2050383;70;20150;-75
2022/09/20 03:55:33;;;;;;;2.03;1.08;;;;;;;7.22;61.18;93098.50;2049142;70;20209;-75
2022/09/20 03:58:12;;;;;;;6.88;1.00;;;;;;;7.32;59.28;93090.13;2053653;70;20201;-75
2022/09/20 04:01:06;;;;;;;4.20;1.10;;;;;;;7.20;60.75;93094.81;2050859;70;20186;-75
2022/09/20 04:04:03;;;;;;;1.95;1.10;;;;;;;7.08;61.57;93108.56;2048094;70;20170;-75
2022/09/20 04:06:54;;;;;;;2.40;1.00;;;;;;;7.18;60.25;93103.03;2050291;70;20583;-75
2022/09/20 04:09:44;;;;;;;1.85;1.00;;;;;;;7.16;60.93;93092.41;2050593;70;20162;-75
2022/09/20 04:12:21;;;;;;;1.25;1.10;;;;;;;7.16;59.81;93100.81;2047027;70;20242;-75
2022/09/20 04:15:11;;;;;;;2.22;1.05;;;;;;;7.13;59.81;93101.97;2049679;70;20147;-75
2022/09/20 04:18:05;;;;;;;2.55;1.08;;;;;;;6.90;61.73;93109.91;2050280;70;20238;-75
2022/09/20 04:20:47;;;;;;;2.10;1.20;;;;;;;6.91;61.92;93103.72;2050237;70;20151;-75
2022/09/20 04:23:30;;;;;;;1.90;1.10;;;;;;;7.01;61.00;93110.16;2047228;70;20521;-75
2022/09/20 04:26:00;;;;;;;4.82;1.30;;;;;;;6.96;61.78;93113.19;2050724;70;20146;-75
2022/09/20 04:28:40;;;;;;;2.80;1.10;;;;;;;7.01;60.97;93104.56;2050641;70;20150;-75
2022/09/20 04:31:24;;;;;;;2.00;1.17;;;;;;;7.03;60.74;93115.16;2050664;70;20162;-74
2022/09/20 04:33:56;;;;;;;2.63;1.50;;;;;;;7.04;59.92;93117.38;2050718;70;20668;-75
2022/09/20 04:36:31;;;;;;;5.35;1.60;;;;;;;6.92;61.04;93113.63;2050783;70;20150;-75
2022/09/20 04:39:19;;;;;;;4.30;1.80;;;;;;;6.92;60.58;93115.66;2050808;70;20257;-75
2022/09/20 04:42:29;;;;;;;3.83;1.50;;;;;;;6.83;60.44;93109.41;2050248;70;20242;-75
2022/09/20 04:45:02;;;;;;;4.05;1.80;;;;;;;6.92;61.25;93122.00;2046488;70;20162;-75
2022/09/20 04:47:49;;;;;;;3.15;1.30;;;;;;;6.63;62.79;93116.88;2050733;70;20249;-75
2022/09/20 04:50:33;;;;;;;3.40;1.70;;;;;;;6.75;61.11;93119.22;2050463;70;20154;-75
2022/09/20 04:53:36;;;;;;;3.88;1.63;;;;;;;6.81;60.96;93125.28;2050731;70;20150;-75
2022/09/20 04:56:13;;;;;;;2.85;1.40;;;;;;;6.84;61.13;93126.94;2050404;70;20150;-75
2022/09/20 04:58:40;;;;;;;1.65;1.20;;;;;;;6.83;60.49;93131.06;2050835;70;20507;-75
2022/09/20 05:01:15;;;;;;;2.45;1.30;;;;;;;6.87;59.95;93122.97;2050669;70;20146;-75
2022/09/20 05:04:18;;;;;;;3.97;1.63;;;;;;;6.83;60.61;93117.81;2050663;70;20242;-75
2022/09/20 05:07:02;;;;;;;14.80;6.93;;;;;;;6.91;60.70;93125.38;2050630;70;20249;-74
2022/09/20 05:10:10;;;;;;;17.13;8.20;;;;;;;6.62;62.61;93132.19;2050509;70;20311;-74
2022/09/20 05:13:04;;;;;;;13.43;6.20;;;;;;;6.76;61.17;93127.03;2048894;70;20185;-74
2022/09/20 05:15:35;;;;;;;11.95;5.45;;;;;;;6.71;62.02;93130.81;2050542;70;20574;-74
2022/09/20 05:18:39;;;;;;;14.55;4.80;;;;;;;6.72;61.69;93137.88;2050546;70;20151;-74
2022/09/20 05:21:05;;;;;;;10.18;5.10;;;;;;;6.77;61.34;93128.50;2046555;70;20168;-75
2022/09/20 05:23:51;;;;;;;10.20;5.00;;;;;;;6.79;61.83;93131.47;2050603;70;20162;-74
2022/09/20 05:26:48;;;;;;;8.32;4.57;;;;;;;6.65;62.11;93133.13;2050324;70;20530;-74
2022/09/20 05:29:24;;;;;;;7.63;3.60;;;;;;;6.71;61.25;93133.59;2048693;70;20534;-74
2022/09/20 05:32:07;;;;;;;6.20;3.80;;;;;;;6.86;59.17;93138.28;2050759;70;20185;-74
2022/09/20 05:34:32;;;;;;;;;;;;;;;6.84;60.17;93129.75;2050741;70;20153;-74
2022/09/20 05:37:27;;;;;;;23.05;10.57;;;;;;;6.84;60.97;93129.75;2050531;70;20430;-74
2022/09/20 05:39:52;;;;;;;21.85;10.23;;;;;;;6.71;61.19;93135.66;2050508;70;20593;-75
2022/09/20 05:42:47;;;;;;;16.83;7.18;;;;;;;6.67;61.43;93140.94;2050541;70;20138;-75
2022/09/20 05:45:39;;;;;;;16.13;8.15;;;;;;;6.86;60.91;93139.03;2050000;70;20233;-75
2022/09/20 05:48:13;;;;;;;14.52;8.35;;;;;;;6.76;61.57;93135.41;2050654;70;20202;-75
2022/09/20 05:51:16;;;;;;;13.68;8.00;;;;;;;6.92;58.98;93140.84;2050607;70;20194;-74
2022/09/20 05:54:00;;;;;;;10.50;4.35;;;;;;;6.93;60.50;93140.28;2050611;70;20241;-75
2022/09/20 05:56:46;;;;;;;8.77;5.43;;;;;;;6.68;61.58;93143.16;2046983;70;20146;-74
2022/09/20 05:59:20;;;;;;;12.70;5.88;;;;;;;6.79;61.06;93145.47;2048415;70;20471;-74
2022/09/20 06:02:10;;;;;;;13.73;5.45;;;;;;;6.49;62.77;93146.50;2050580;70;20156;-74
2022/09/20 06:04:51;;;;;;;10.45;5.57;;;;;;;6.71;62.26;93150.41;2050548;70;20157;-75
2022/09/20 06:07:51;;;;;;;10.75;4.70;;;;;;;6.76;62.39;93143.81;2050502;70;20142;-73
2022/09/20 06:10:38;;;;;;;10.77;5.25;;;;;;;6.75;61.35;93155.59;2050385;70;20147;-72
2022/09/20 06:13:49;;;;;;;14.25;6.75;;;;;;;6.80;61.49;93152.53;2050450;70;20596;-77
2022/09/20 06:16:30;;;;;;;12.52;5.40;;;;;;;6.77;61.81;93155.75;2047749;70;20158;-77
2022/09/20 06:19:16;;;;;;;15.75;7.60;;;;;;;6.71;62.80;93155.25;2050501;70;20551;-76
2022/09/20 06:21:54;;;;;;;14.68;7.10;;;;;;;6.76;61.88;93149.41;2050548;70;20478;-75
2022/09/20 06:24:39;;;;;;;15.18;7.65;;;;;;;6.81;62.27;93150.47;2050430;70;20166;-77
2022/09/20 06:27:14;;;;;;;16.15;9.27;;;;;;;6.85;61.03;93150.81;2050565;70;20589;-77
2022/09/20 06:29:47;;;;;;;15.85;8.63;;;;;;;6.87;62.20;93150.97;2049777;70;20620;-77
2022/09/20 06:32:17;;;;;;;19.15;8.65;;;;;;;6.79;63.12;93151.06;2050413;70;20150;-75
2022/09/20 06:34:42;;;;;;;14.23;7.28;;;;;;;6.77;62.62;93150.88;2050516;70;20181;-77
2022/09/20 06:43:13;;;;;;;14.00;7.55;;;;;;;6.57;64.65;93154.84;2050450;70;20230;-76
2022/09/20 06:45:40;;;;;;;11.27;6.47;;;;;;;6.73;62.68;93158.22;2046674;70;20301;-75
2022/09/20 06:48:07;;;;;;;14.43;8.00;;;;;;;6.70;63.74;93154.50;2046903;70;20162;-74
2022/09/20 06:50:35;;;;;;;15.48;7.78;;;;;;;6.79;63.29;93153.13;2050465;70;20154;-76
2022/09/20 06:53:01;;;;;;;20.35;8.60;;;;;;;6.80;63.87;93157.41;2050373;70;20138;-76
2022/09/20 06:55:31;;;;;;;18.35;9.63;;;;;;;6.81;63.85;93154.00;2050823;70;20150;-76
2022/09/20 06:57:57;;;;;;;13.77;7.70;;;;;;;6.87;63.42;93154.53;2050742;70;20167;-75
2022/09/20 07:00:23;;;;;;;11.30;6.45;;;;;;;6.92;63.12;93154.84;2050605;70;20150;-76
2022/09/20 07:02:48;;;;;;;10.27;5.20;;;;;;;6.89;63.72;93151.16;2050579;70;20146;-77
2022/09/20 07:05:21;;;;;;;10.48;5.10;;;;;;;6.95;63.36;93157.22;2050398;70;20162;-74
2022/09/20 07:07:46;;;;;;;14.07;6.13;;;;;;;6.99;63.08;93156.81;2050546;70;20146;-74
2022/09/20 07:10:14;;;;;;;11.60;5.75;;;;;;;7.08;62.82;93159.69;2050538;70;20640;-75
2022/09/20 07:12:40;;;;;;;8.55;5.50;;;;;;;7.11;63.06;93155.75;2050629;70;20190;-75
2022/09/20 07:15:06;;;;;;;8.27;5.20;;;;;;;7.11;63.48;93155.00;2050714;70;20216;-77
2022/09/20 07:17:33;;;;;;;19.90;10.52;;;;;;;7.19;61.75;93158.44;2050377;70;20161;-74
2022/09/20 07:19:59;;;;;;;18.60;10.98;;;;;;;7.24;62.75;93163.06;2050239;70;20146;-76
2022/09/20 07:22:25;;;;;;;15.07;8.80;;;;;;;7.46;62.69;93160.53;2050425;70;20146;-75
2022/09/20 07:24:51;;;;;;;16.98;7.65;;;;;;;7.81;62.88;93158.41;2050422;70;20203;-77
2022/09/20 07:27:17;;;;;;;14.70;8.30;;;;;;;8.22;59.41;93156.66;2050320;70;20146;-76
2022/09/20 07:29:43;;;;;;;16.25;8.93;;;;;;;8.55;62.60;93164.75;2050238;70;20494;-76
2022/09/20 07:32:08;;;;;;;20.73;9.27;;;;;;;9.22;61.63;93155.69;2050338;70;20510;-76
2022/09/20 07:34:34;;;;;;;16.27;7.38;;;;;;;9.69;60.07;93156.22;2050330;70;20486;-77
2022/09/20 07:37:00;;;;;;;11.48;5.80;;;;;;;9.70;59.41;93154.91;2050376;70;20181;-77
2022/09/20 07:39:29;;;;;;;9.05;4.75;;;;;;;10.36;59.33;93146.16;2050328;70;20194;-79
2022/09/20 07:41:55;;;;;;;6.05;3.70;;;;;;;10.35;56.30;93156.63;2050233;70;20248;-77
2022/09/20 07:44:23;;;;;;;5.30;3.28;;;;;;;10.73;55.50;93152.16;2050518;70;20170;-76
2022/09/20 07:46:53;;;;;;;8.52;3.78;;;;;;;11.30;55.37;93153.09;2050523;70;20185;-74
2022/09/20 07:49:20;;;;;;;7.45;2.80;;;;;;;12.45;51.58;93161.03;2049982;70;20190;-74
2022/09/20 07:51:47;;;;;;;6.18;3.20;;;;;;;12.97;49.27;93151.44;2050343;70;20262;-74
2022/09/20 07:54:13;;;;;;;5.63;3.10;;;;;;;13.05;48.33;93151.91;2050129;70;20187;-75
2022/09/20 07:56:39;;;;;;;8.88;4.65;;;;;;;14.28;44.98;93144.66;2050309;70;20150;-75
2022/09/20 07:59:05;;;;;;;8.55;3.97;;;;;;;13.50;46.38;93151.69;2049836;70;20262;-76
2022/09/20 08:01:30;;;;;;;8.57;5.53;;;;;;;12.82;48.96;93149.84;2050893;70;20214;-77
2022/09/20 08:03:56;;;;;;;9.50;4.82;;;;;;;14.10;47.18;93139.47;2050913;70;20233;-76
2022/09/20 08:06:22;;;;;;;6.90;3.67;;;;;;;14.74;44.76;93135.09;2050656;70;20152;-76
2022/09/20 08:08:50;;;;;;;4.30;2.75;;;;;;;13.64;47.19;93140.44;2050706;70;20154;-76
2022/09/20 08:11:27;;;;;;;5.15;2.75;;;;;;;14.12;45.54;93141.69;2050664;70;20150;-76
2022/09/20 08:13:53;;;;;;;3.60;2.30;;;;;;;13.95;46.30;93137.22;2050682;70;20154;-77
2022/09/20 08:16:19;;;;;;;5.07;3.08;;;;;;;14.59;44.23;93142.13;2051290;70;20622;-77
2022/09/20 08:18:47;;;;;;;4.72;2.40;;;;;;;14.53;46.05;93141.81;2050726;70;20146;-75
2022/09/20 08:21:13;;;;;;;3.70;2.28;;;;;;;14.71;44.62;93134.28;2051701;70;20605;-76
2022/09/20 08:23:41;;;;;;;3.05;1.80;;;;;;;13.88;41.64;93141.84;2048931;69;20177;-77
2022/09/20 08:26:12;;;;;;;4.68;1.52;;;;;;;14.65;42.02;93133.94;2051531;70;20146;-76
2022/09/20 08:28:39;;;;;;;5.25;1.85;;;;;;;15.40;43.55;93133.50;2050736;70;20143;-76
2022/09/20 08:31:12;;;;;;;2.47;1.60;;;;;;;15.72;41.92;93142.91;2050870;70;20238;-76
2022/09/20 08:33:38;;;;;;;2.78;1.60;;;;;;;15.96;42.13;93138.41;2050799;70;20226;-76
2022/09/20 08:36:04;;;;;;;3.55;1.67;;;;;;;15.52;40.08;93142.59;2050798;70;20146;-76
2022/09/20 08:38:31;;;;;;;2.97;1.70;;;;;;;16.33;40.78;93142.97;2050602;70;20181;-75
2022/09/20 08:41:02;;;;;;;2.58;1.65;;;;;;;16.70;42.16;93144.63;2050922;70;20463;-76
2022/09/20 08:43:34;;;;;;;2.80;1.83;;;;;;;17.06;39.15;93141.97;2050951;70;20222;-76
2022/09/20 08:46:02;;;;;;;1.80;1.37;;;;;;;17.67;39.10;93133.91;2050808;70;20210;-75
2022/09/20 08:48:32;;;;;;;3.40;1.35;;;;;;;17.35;39.97;93132.53;2048929;70;20230;-77
2022/09/20 08:51:05;;;;;;;2.03;1.30;;;;;;;17.60;40.59;93126.50;2049152;70;20154;-77
2022/09/20 08:53:32;;;;;;;2.13;1.27;;;;;;;18.40;38.20;93124.00;2048460;70;20185;-75
2022/09/20 08:55:58;;;;;;;1.45;1.20;;;;;;;17.58;39.59;93120.00;2050794;70;20154;-76
2022/09/20 08:58:27;;;;;;;1.80;1.20;;;;;;;18.49;37.41;93122.94;2050694;70;20146;-76
2022/09/20 09:00:55;;;;;;;2.67;1.02;;;;;;;18.98;37.32;93107.66;2051436;70;20222;-76
2022/09/20 09:03:21;;;;;;;2.10;1.10;;;;;;;18.94;35.95;93111.09;2051077;70;20174;-77
2022/09/20 09:05:57;;;;;;;1.40;1.10;;;;;;;18.81;36.02;93111.31;2050997;70;20178;-77
2022/09/20 09:08:37;;;;;;;2.30;1.23;;;;;;;18.71;36.12;93105.97;2051349;70;20253;-77
2022/09/20 09:11:08;;;;;;;1.95;1.13;;;;;;;19.32;34.91;93105.28;2051056;70;20157;-76
2022/09/20 09:14:03;;;;;;;2.08;1.10;;;;;;;19.87;36.08;93103.56;2051241;70;20156;-77
2022/09/20 09:16:31;;;;;;;1.50;1.00;;;;;;;19.88;32.27;93096.47;2049473;70;20154;-77
2022/09/20 09:19:17;;;;;;;2.67;1.10;;;;;;;18.88;33.20;93101.59;2050639;70;20174;-76
2022/09/20 09:21:43;;;;;;;3.05;1.10;;;;;;;19.60;34.41;93102.69;2051055;70;20162;-77
2022/09/20 09:24:18;;;;;;;3.55;1.27;;;;;;;20.31;32.28;93099.28;2050613;70;20536;-77
2022/09/20 09:26:45;;;;;;;1.67;1.30;;;;;;;19.89;34.34;93097.94;2050875;70;20154;-77
2022/09/20 09:29:18;;;;;;;1.13;1.02;;;;;;;20.69;33.76;93087.56;2051201;70;20153;-78
2022/09/20 09:31:45;;;;;;;;;;;;;;;20.24;33.34;93091.19;2051288;70;20234;-76
2022/09/20 09:34:28;;;;;;;1.27;1.08;;;;;;;20.91;34.02;93092.47;2054037;70;20073;-75
2022/09/20 09:36:54;;;;;;;1.95;1.08;;;;;;;20.18;31.79;93082.41;2054579;70;20150;-77
2022/09/20 09:39:31;;;;;;;2.30;1.00;;;;;;;20.05;33.45;93090.59;2054600;69;20142;-75
2022/09/20 09:42:00;;;;;;;1.20;0.93;;;;;;;20.00;32.58;93088.28;2055548;70;20146;-77
2022/09/20 09:44:28;;;;;;;2.70;1.00;;;;;;;20.98;32.11;93089.13;2054888;69;20220;-77
2022/09/20 09:46:57;;;;;;;1.80;1.00;;;;;;;21.93;31.08;93080.88;2052202;70;20237;-74
2022/09/20 09:49:34;;;;;;;1.27;0.90;;;;;;;20.14;32.12;93079.44;2051074;70;20177;-74
2022/09/20 09:52:06;;;;;;;3.45;1.15;;;;;;;20.52;32.25;93080.63;2047750;70;20345;-75
2022/09/20 09:54:43;;;;;;;3.25;0.85;;;;;;;20.42;32.06;93077.44;2051083;70;20154;-76
2022/09/20 09:57:36;;;;;;;1.95;1.40;;;;;;;21.67;32.58;93080.94;2051008;70;20586;-76
2022/09/20 10:00:20;;;;;;;2.90;1.17;;;;;;;22.20;31.06;93071.53;2050319;70;20505;-75
2022/09/20 10:03:12;;;;;;;3.00;1.10;;;;;;;23.35;29.92;93066.09;2050858;70;20638;-76
2022/09/20 10:05:58;;;;;;;3.78;1.20;;;;;;;23.51;28.66;93066.41;2050701;70;20634;-74
2022/09/20 10:08:41;;;;;;;1.98;1.15;;;;;;;23.99;29.15;93065.81;2050626;70;20157;-76
2022/09/20 10:11:29;;;;;;;1.90;1.00;;;;;;;23.16;29.37;93062.13;2050752;70;20130;-75
2022/09/20 10:14:02;;;;;;;2.08;1.10;;;;;;;21.68;28.88;93056.63;2050598;70;20254;-76
2022/09/20 10:16:34;;;;;;;1.67;0.98;;;;;;;22.21;28.83;93049.31;2050684;70;20138;-77
2022/09/20 10:19:15;;;;;;;2.28;1.00;;;;;;;22.73;29.21;93054.78;2050543;70;20677;-76
2022/09/20 10:21:47;;;;;;;5.10;1.13;;;;;;;22.81;28.43;93049.91;2049338;70;20180;-75
2022/09/20 10:24:25;;;;;;;3.22;1.00;;;;;;;23.94;27.65;93047.03;2049814;70;20186;-75
2022/09/20 10:26:58;;;;;;;4.38;1.23;;;;;;;23.72;26.38;93052.41;2050105;70;20159;-76
2022/09/20 10:29:33;;;;;;;2.90;1.00;;;;;;;23.93;26.26;93047.75;2049767;70;20624;-76
2022/09/20 10:32:11;;;;;;;3.13;1.20;;;;;;;24.23;26.82;93039.56;2050031;70;20162;-76
2022/09/20 10:34:51;;;;;;;1.95;1.17;;;;;;;25.49;26.53;93042.69;2050430;70;20170;-76
2022/09/20 10:37:42;;;;;;;1.60;1.15;;;;;;;26.24;24.71;93039.78;2047117;70;20533;-76
2022/09/20 10:40:13;;;;;;;5.82;1.45;;;;;;;26.51;24.98;93046.50;2050134;70;20150;-77
2022/09/20 10:45:43;;;;;;;1.80;1.10;;;;;;;27.45;23.15;93044.81;2046894;70;20169;-75
2022/09/20 10:48:35;;;;;;;0.70;0.60;;;;;;;27.42;21.71;93036.84;2050638;70;20158;-74
2022/09/20 10:51:17;;;;;;;1.15;0.70;;;;;;;26.48;23.57;93034.22;2047075;70;20642;-75
2022/09/20 10:53:55;;;;;;;4.65;0.80;;;;;;;27.85;21.21;93034.78;2047168;70;20181;-74
2022/09/20 10:56:36;;;;;;;3.40;0.68;;;;;;;28.30;19.77;93043.50;2046737;70;20523;-74
2022/09/20 10:59:34;;;;;;;0.95;0.70;;;;;;;27.37;19.99;93036.09;2046534;70;20994;-75
2022/09/20 11:02:44;;;;;;;1.70;0.75;;;;;;;29.05;18.87;93028.94;2034712;70;20187;-75
2022/09/20 11:05:23;;;;;;;1.15;0.57;;;;;;;31.88;17.83;93037.47;2034621;70;20344;-75
2022/09/20 11:08:06;;;;;;;0.90;0.60;;;;;;;31.07;16.58;93026.81;2035680;70;20304;-76
2022/09/20 11:10:38;;;;;;;1.73;0.70;;;;;;;29.01;16.61;93026.06;2035602;70;20331;-74
2022/09/20 11:13:16;;;;;;;;;;;;;;;30.20;15.83;93020.38;2036044;70;20143;-75
2022/09/20 11:15:58;;;;;;;3.13;0.70;;;;;;;32.03;14.69;93026.34;2036005;70;20572;-75
2022/09/20 11:19:01;;;;;;;0.93;0.60;;;;;;;35.70;14.30;93029.41;2036045;70;20554;-76
2022/09/20 11:21:43;;;;;;;1.08;0.52;;;;;;;33.89;14.37;93025.91;2035606;70;20224;-76
2022/09/20 11:24:30;;;;;;;2.67;0.70;;;;;;;34.55;13.71;93025.16;2039730;70;20147;-76
2022/09/20 11:27:09;;;;;;;1.48;0.73;;;;;;;34.56;14.14;93015.59;2038853;70;20619;-76
2022/09/20 11:29:43;;;;;;;1.08;0.63;;;;;;;36.21;13.09;93024.97;2039127;70;20242;-76
2022/09/20 11:32:19;;;;;;;2.55;0.75;;;;;;;38.15;13.30;93030.03;2037217;70;20218;-76
2022/09/20 11:34:49;;;;;;;0.80;0.55;;;;;;;39.15;11.74;93020.81;2039842;70;20159;-75
2022/09/20 11:37:17;;;;;;;2.72;0.80;;;;;;;33.83;13.39;93011.44;2042521;70;20192;-75
2022/09/20 11:39:50;;;;;;;1.85;0.60;;;;;;;34.44;13.33;93021.00;2047178;70;20166;-75
2022/09/20 11:42:24;;;;;;;2.55;0.75;;;;;;;35.86;12.56;93022.34;2046727;70;20151;-74
2022/09/20 11:44:50;;;;;;;1.30;0.70;;;;;;;37.06;12.32;93023.69;2047127;70;20613;-74
2022/09/20 11:47:29;;;;;;;3.22;1.20;;;;;;;37.71;12.02;93017.72;2047436;70;20217;-75
2022/09/20 11:50:09;;;;;;;3.63;0.90;;;;;;;37.48;12.20;93006.81;2047223;70;20221;-75
2022/09/20 11:53:03;;;;;;;1.10;0.75;;;;;;;35.91;13.97;93009.00;2047529;70;20142;-75
2022/09/20 11:55:51;;;;;;;1.15;0.60;;;;;;;35.63;13.56;92999.56;2047177;70;20160;-75
2022/09/20 11:58:21;;;;;;;3.53;0.80;;;;;;;34.51;13.41;92996.75;2047038;70;20162;-75
2022/09/20 12:00:53;;;;;;;1.50;0.60;;;;;;;35.17;12.68;92995.75;2047137;70;20197;-76
2022/09/20 12:03:39;;;;;;;4.72;0.70;;;;;;;35.68;12.35;92979.69;2047217;70;20234;-76
2022/09/20 12:06:19;;;;;;;1.75;0.75;;;;;;;34.35;13.32;92980.28;2046916;70;20143;-74
2022/09/20 12:08:49;;;;;;;2.90;0.93;;;;;;;36.39;12.43;92980.41;2046900;70;20147;-77
2022/09/20 12:11:15;;;;;;;2.00;0.80;;;;;;;34.38;13.08;92966.34;2043358;70;20241;-73
2022/09/20 12:13:51;;;;;;;2.85;0.60;;;;;;;37.70;12.75;92981.03;2046477;70;20257;-76
2022/09/20 12:16:37;;;;;;;1.85;0.85;;;;;;;37.58;11.91;92974.13;2046615;70;20314;-74
2022/09/20 12:19:11;;;;;;;2.72;0.68;;;;;;;35.64;12.53;92962.22;2043387;70;20589;-75
2022/09/20 12:21:58;;;;;;;2.78;0.85;;;;;;;34.40;12.71;92961.16;2046649;70;20213;-75
2022/09/20 12:24:34;;;;;;;1.60;0.50;;;;;;;34.32;13.76;92949.00;2047076;70;20210;-77
2022/09/20 12:27:19;;;;;;;2.30;0.60;;;;;;;37.72;12.65;92964.06;2046899;70;20197;-77
2022/09/20 12:29:46;;;;;;;3.45;0.88;;;;;;;37.42;12.23;92963.00;2046723;70;20146;-76
2022/09/20 12:32:50;;;;;;;1.38;0.73;;;;;;;37.52;11.87;92964.81;2046196;70;20226;-76
2022/09/20 12:35:43;;;;;;;2.72;0.88;;;;;;;33.56;13.43;92941.25;2046837;70;20172;-75
2022/09/20 12:38:20;;;;;;;1.45;0.70;;;;;;;31.92;13.90;92949.34;2045149;70;20138;-76
2022/09/20 12:41:00;;;;;;;2.45;0.90;;;;;;;28.78;17.01;92938.47;2046978;70;20215;-74
2022/09/20 12:43:29;;;;;;;4.38;1.00;;;;;;;31.02;15.56;92938.94;2046608;70;20226;-74